Blackville, South Carolina
Current Conditions -  °F | °C
As of 11:15 PM on Tuesday 27 Jan 2015 (Local Time) from KBNL Reporting Station
Clear Clear  
Wind Chill:   Ceiling: Unl
Heat Index:   Visibility: NA
Dew Point: -1°   Wind: 10mph
Humidity: 70%   Direction: 330°NNW
Pressure: 30.04"   Gusts: NA
Location:  33.36°N, 81.27°W
Report Text: KBNL 280415Z AUTO 33009KT CLR 04/M01 A3004 RMK AO2
Loading
Personal Weather Stations






























Interactive Weather Map New forecast layout! Learn more

10-Day Weather Forecast

Advertisements
Track Severe Weather on mobile